Time;durP1;ratioP1;P1;durP2;ratioP2;P2;SDS_P1;SDS_P2;PMS_P1;PMS_P2;Temp;Humidity;BMP_temperature;BMP_pressure;BME280_temperature;BME280_humidity;BME280_pressure;Samples;Min_cycle;Max_cycle;Signal;HPM_P1;HPM_P2
2023/01/08 00:07:56;;;;;;;1.40;1.10;;;;;;;16.37;67.29;99890.81;20314257;29;20462;-88
2023/01/08 00:17:58;;;;;;;1.13;0.82;;;;;;;16.37;67.38;99875.56;20296604;29;20342;-85
2023/01/08 00:27:59;;;;;;;1.23;0.90;;;;;;;16.36;67.55;99876.56;20314339;29;20468;-89
2023/01/08 00:38:01;;;;;;;1.02;0.98;;;;;;;16.37;67.66;99867.50;20294514;29;20607;-88
2023/01/08 00:48:02;;;;;;;1.13;1.02;;;;;;;16.35;67.78;99864.13;20294173;29;20056;-89
2023/01/08 00:58:04;;;;;;;1.95;1.05;;;;;;;16.35;67.67;99858.75;20266160;29;20052;-89
2023/01/08 01:08:05;;;;;;;1.00;0.90;;;;;;;16.36;67.67;99863.13;20309233;29;20044;-88
2023/01/08 01:18:07;;;;;;;1.02;0.90;;;;;;;16.35;67.94;99864.13;20313850;29;20084;-89
2023/01/08 01:28:09;;;;;;;1.02;0.80;;;;;;;16.35;67.98;99856.09;20301197;29;20052;-88
2023/01/08 01:38:10;;;;;;;1.58;0.80;;;;;;;16.04;67.99;99809.91;20309456;29;20048;-90
2023/01/08 01:48:12;;;;;;;1.20;0.85;;;;;;;16.27;67.74;99853.28;20291908;29;20135;-88
2023/01/08 01:58:17;;;;;;;1.13;0.80;;;;;;;16.34;67.63;99854.34;20290061;29;20048;-88
2023/01/08 02:08:31;;;;;;;1.87;1.07;;;;;;;16.34;67.74;99859.72;20290504;29;20086;-89
2023/01/08 02:18:42;;;;;;;1.30;0.80;;;;;;;15.83;67.16;99775.22;20290168;29;20703;-88
2023/01/08 02:29:00;;;;;;;1.75;0.80;;;;;;;16.34;67.17;99845.47;20306751;29;20525;-88
2023/01/08 02:39:38;;;;;;;1.08;0.73;;;;;;;16.33;67.03;99852.66;20275731;29;20382;-89
2023/01/08 02:49:41;;;;;;;1.25;0.65;;;;;;;16.27;66.94;99855.13;20284896;29;20056;-88
2023/01/08 02:59:45;;;;;;;1.58;0.93;;;;;;;16.29;67.08;99848.59;20269111;29;20087;-88
2023/01/08 03:09:46;;;;;;;2.25;0.80;;;;;;;16.33;66.77;99830.34;20292880;29;20056;-88
2023/01/08 03:19:54;;;;;;;2.92;0.98;;;;;;;16.27;66.84;99825.59;20291504;29;20048;-89
2023/01/08 03:29:57;;;;;;;1.17;0.88;;;;;;;16.31;67.04;99838.53;20270441;29;20060;-89
2023/01/08 03:40:04;;;;;;;1.77;0.65;;;;;;;16.17;66.97;99799.66;20317588;29;20048;-88
2023/01/08 03:50:08;;;;;;;1.67;0.90;;;;;;;16.31;67.08;99827.81;20288864;29;20059;-89
2023/01/08 04:00:10;;;;;;;1.40;0.87;;;;;;;16.09;67.04;99781.63;20257723;29;20055;-89
2023/01/08 04:10:12;;;;;;;2.05;1.17;;;;;;;16.32;67.35;99808.00;20287643;29;20056;-88
2023/01/08 04:20:13;;;;;;;0.88;0.65;;;;;;;16.31;67.38;99809.00;20295217;29;20115;-89
2023/01/08 04:30:15;;;;;;;1.23;0.60;;;;;;;16.31;67.30;99805.50;20297333;29;20040;-88
2023/01/08 04:40:17;;;;;;;1.45;0.70;;;;;;;16.32;67.47;99796.44;20282467;29;20048;-88
2023/01/08 04:50:18;;;;;;;1.15;0.63;;;;;;;16.25;67.57;99780.06;20313418;29;20100;-89
2023/01/08 05:00:19;;;;;;;1.88;0.82;;;;;;;16.09;67.43;99748.53;20315393;29;20062;-88
2023/01/08 05:10:21;;;;;;;0.68;0.60;;;;;;;16.24;67.48;99760.44;20310687;29;20056;-88
2023/01/08 05:20:23;;;;;;;1.42;0.60;;;;;;;16.31;67.75;99757.97;20314366;29;20059;-88
2023/01/08 05:30:24;;;;;;;1.15;0.52;;;;;;;16.32;67.57;99738.19;20309912;29;20075;-86
2023/01/08 05:40:26;;;;;;;1.52;0.60;;;;;;;16.25;67.87;99726.38;20272842;29;20060;-87
2023/01/08 05:50:27;;;;;;;2.05;0.80;;;;;;;16.32;67.81;99748.91;20309833;29;20058;-88
2023/01/08 06:00:29;;;;;;;1.65;0.60;;;;;;;16.31;67.83;99752.59;20305836;29;20060;-88
2023/01/08 06:10:31;;;;;;;0.70;0.57;;;;;;;16.29;67.56;99749.22;20305059;29;20058;-88
2023/01/08 06:20:33;;;;;;;0.57;0.57;;;;;;;16.27;67.66;99729.75;20303187;29;20059;-89
2023/01/08 06:30:35;;;;;;;0.82;0.57;;;;;;;16.32;67.48;99756.97;20288366;29;20077;-88
2023/01/08 06:40:37;;;;;;;1.95;0.70;;;;;;;16.15;67.71;99728.28;20321665;29;20056;-88
2023/01/08 06:50:38;;;;;;;2.35;0.77;;;;;;;16.31;67.36;99757.16;20319910;29;20410;-88
2023/01/08 07:00:40;;;;;;;1.20;0.68;;;;;;;16.30;67.38;99740.16;20290546;29;20056;-88
2023/01/08 07:10:42;;;;;;;1.27;0.60;;;;;;;16.30;67.26;99744.72;20304377;29;20060;-88
2023/01/08 07:20:44;;;;;;;1.02;0.50;;;;;;;16.31;67.36;99754.47;20288349;29;20059;-88
2023/01/08 07:30:45;;;;;;;0.75;0.47;;;;;;;16.30;67.17;99758.97;20317663;29;20059;-87
2023/01/08 07:40:47;;;;;;;0.57;0.45;;;;;;;16.30;67.18;99761.66;20314526;29;20048;-87
2023/01/08 07:50:48;;;;;;;1.75;0.70;;;;;;;16.23;67.35;99755.22;20316980;29;20135;-88
2023/01/08 08:00:50;;;;;;;0.90;0.43;;;;;;;16.29;67.10;99765.34;20293818;29;20139;-88
2023/01/08 08:10:51;;;;;;;1.63;0.43;;;;;;;16.30;67.02;99755.47;20298879;29;20067;-89
2023/01/08 08:20:53;;;;;;;1.02;0.50;;;;;;;16.29;66.84;99754.59;20317014;29;20052;-88
2023/01/08 08:30:54;;;;;;;2.00;0.63;;;;;;;16.29;66.70;99733.13;20298711;29;20044;-87
2023/01/08 08:40:56;;;;;;;1.67;0.63;;;;;;;16.28;66.63;99726.06;20301852;29;20111;-88
2023/01/08 08:50:57;;;;;;;2.25;0.80;;;;;;;16.30;66.63;99725.91;20316975;29;20498;-87
2023/01/08 09:01:02;;;;;;;0.75;0.50;;;;;;;16.30;66.98;99704.44;20293653;29;20078;-88
2023/01/08 09:11:04;;;;;;;2.03;0.80;;;;;;;16.31;66.64;99708.81;20293604;29;20056;-89
2023/01/08 09:21:06;;;;;;;1.23;0.60;;;;;;;16.31;66.29;99708.81;20255638;29;20103;-94
2023/01/08 09:31:08;;;;;;;1.23;0.52;;;;;;;16.30;66.18;99723.22;20279446;29;20072;-94
2023/01/08 09:41:27;;;;;;;1.02;0.50;;;;;;;16.31;65.98;99724.91;20291886;29;20059;-94
2023/01/08 09:51:36;;;;;;;1.35;0.47;;;;;;;16.30;65.92;99718.69;20285475;29;20048;-87
2023/01/08 10:01:39;;;;;;;1.25;0.45;;;;;;;16.29;65.67;99730.44;20268961;29;20110;-87
2023/01/08 10:11:43;;;;;;;1.48;0.70;;;;;;;16.29;65.46;99722.38;20294571;29;20054;-86
2023/01/08 10:21:45;;;;;;;1.88;0.45;;;;;;;16.20;65.32;99691.94;20305229;29;20047;-86
2023/01/08 10:31:52;;;;;;;1.67;0.73;;;;;;;16.29;65.18;99700.06;20293433;29;20479;-86
2023/01/08 10:41:56;;;;;;;1.88;0.60;;;;;;;16.30;65.10;99682.94;20278308;29;20048;-88
2023/01/08 10:51:59;;;;;;;1.23;0.70;;;;;;;16.29;65.99;99679.41;20277259;29;20080;-86
2023/01/08 11:02:01;;;;;;;1.63;0.70;;;;;;;16.33;66.96;99675.41;20252801;29;22019;-86
2023/01/08 11:12:03;;;;;;;4.22;0.80;;;;;;;16.34;66.72;99674.41;20260174;29;20048;-86
2023/01/08 11:22:16;;;;;;;2.50;0.70;;;;;;;16.32;66.70;99662.97;20265312;29;20060;-94
2023/01/08 11:32:33;;;;;;;5.28;0.90;;;;;;;16.46;74.20;99652.69;20248009;29;20541;-87
2023/01/08 11:43:09;;;;;;;5.78;1.35;;;;;;;16.58;76.11;99627.22;20261763;29;20635;-90
2023/01/08 11:53:23;;;;;;;2.63;1.10;;;;;;;16.57;73.46;99585.25;20270836;29;20064;-88
2023/01/08 12:03:34;;;;;;;3.90;0.77;;;;;;;16.80;74.81;99603.50;20297249;29;20063;-88
2023/01/08 12:13:58;;;;;;;6.57;1.00;;;;;;;16.78;74.62;99592.06;20314317;29;20056;-87
2023/01/08 12:24:21;;;;;;;2.08;0.70;;;;;;;16.87;74.07;99585.72;20277563;29;20119;-87
2023/01/08 12:34:26;;;;;;;2.13;0.80;;;;;;;16.88;73.76;99568.59;20293986;29;20153;-87
2023/01/08 12:44:28;;;;;;;2.77;1.17;;;;;;;16.90;73.33;99563.03;20318892;29;20060;-87
2023/01/08 12:54:52;;;;;;;2.45;0.77;;;;;;;16.91;72.81;99546.75;20301611;29;20056;-88
2023/01/08 13:04:54;;;;;;;3.38;0.93;;;;;;;16.55;72.22;99474.41;20301405;29;20092;-88
2023/01/08 13:14:56;;;;;;;3.22;1.17;;;;;;;16.93;71.96;99522.41;20317376;29;20052;-87
2023/01/08 13:25:08;;;;;;;2.10;1.10;;;;;;;16.79;71.58;99486.22;20299686;29;20059;-87
2023/01/08 13:35:15;;;;;;;3.63;0.90;;;;;;;16.94;71.42;99484.59;20315141;29;20059;-87
2023/01/08 13:45:17;;;;;;;2.40;0.90;;;;;;;16.94;70.88;99476.53;20313480;29;20054;-87
2023/01/08 13:55:33;;;;;;;2.13;1.23;;;;;;;16.94;70.59;99452.34;20297585;29;20052;-87
2023/01/08 14:05:35;;;;;;;1.25;0.60;;;;;;;16.95;70.33;99453.19;20297637;29;20052;-87
2023/01/08 14:15:37;;;;;;;1.90;0.60;;;;;;;16.95;70.01;99443.28;20296385;29;20052;-88
2023/01/08 14:25:40;;;;;;;1.67;0.60;;;;;;;16.75;69.94;99410.47;20290836;29;20140;-87
2023/01/08 14:35:42;;;;;;;2.47;0.80;;;;;;;16.93;69.63;99450.66;20597657;23;20408;-89
2023/01/08 14:45:46;;;;;;;2.58;1.27;;;;;;;16.90;69.51;99434.00;20377974;28;21106;-94
2023/01/08 14:55:49;;;;;;;0.50;0.43;;;;;;;16.81;69.63;99427.81;20369964;29;20048;-92
2023/01/08 15:05:53;;;;;;;1.65;0.68;;;;;;;16.83;69.86;99431.16;20346232;28;20067;-94
2023/01/08 15:16:02;;;;;;;1.83;0.57;;;;;;;16.53;70.12;99393.97;20363377;29;20571;-87
2023/01/08 15:26:08;;;;;;;1.05;0.55;;;;;;;16.54;70.15;99402.88;20321286;29;20052;-90
2023/01/08 15:36:10;;;;;;;1.50;0.60;;;;;;;16.75;70.08;99418.53;20309845;28;20059;-89
2023/01/08 15:46:11;;;;;;;0.75;0.40;;;;;;;16.75;70.25;99415.00;20329814;28;20134;-87
2023/01/08 15:56:13;;;;;;;0.88;0.52;;;;;;;16.73;70.49;99425.94;20325990;29;20529;-86
2023/01/08 16:06:14;;;;;;;1.25;0.30;;;;;;;16.75;70.61;99402.41;20321836;29;20077;-86
2023/01/08 16:16:16;;;;;;;0.90;0.47;;;;;;;16.59;69.87;99367.47;20305206;29;20044;-90
2023/01/08 16:26:18;;;;;;;1.30;0.63;;;;;;;16.70;69.39;99385.09;20305499;29;20071;-88
2023/01/08 16:36:19;;;;;;;1.33;0.50;;;;;;;16.65;69.35;99373.00;20300546;28;20070;-92
2023/01/08 16:46:21;;;;;;;1.45;0.50;;;;;;;16.59;69.12;99368.28;20323750;29;20087;-91
2023/01/08 16:56:22;;;;;;;1.05;0.60;;;;;;;16.55;69.04;99366.94;20316369;29;20074;-85
2023/01/08 17:06:24;;;;;;;1.23;0.45;;;;;;;16.52;68.85;99364.59;20316697;28;20110;-88
2023/01/08 17:16:26;;;;;;;1.23;0.50;;;;;;;16.28;68.59;99323.22;20328514;29;20053;-88
2023/01/08 17:26:33;;;;;;;2.00;0.68;;;;;;;16.48;68.58;99352.50;20271040;28;21429;-89
2023/01/08 17:36:36;;;;;;;1.15;0.52;;;;;;;16.46;68.53;99346.44;20330779;29;20313;-88
2023/01/08 17:46:41;;;;;;;1.48;0.88;;;;;;;16.36;68.43;99331.34;20327908;28;20461;-90
2023/01/08 17:56:42;;;;;;;1.33;0.60;;;;;;;16.43;68.16;99350.28;20330455;28;20059;-89
2023/01/08 18:06:44;;;;;;;1.65;0.63;;;;;;;16.31;68.11;99324.75;20358903;29;20058;-87
2023/01/08 18:16:48;;;;;;;1.38;0.60;;;;;;;16.42;68.00;99331.69;20339050;29;20048;-87
2023/01/08 18:26:49;;;;;;;1.63;0.70;;;;;;;16.40;68.05;99325.63;20329174;29;20418;-86
2023/01/08 18:36:51;;;;;;;0.40;0.40;;;;;;;16.38;67.82;99307.84;20356776;29;20063;-86
2023/01/08 18:46:53;;;;;;;1.27;0.68;;;;;;;16.38;67.61;99291.72;20348595;28;20596;-87
2023/01/08 18:56:54;;;;;;;1.17;0.50;;;;;;;16.37;67.64;99287.34;20363077;29;20047;-87
2023/01/08 19:06:56;;;;;;;0.70;0.40;;;;;;;16.37;68.02;99268.56;20390859;29;20063;-89
2023/01/08 19:16:57;;;;;;;1.48;0.55;;;;;;;16.36;67.87;99248.09;20377217;29;20110;-88
2023/01/08 19:26:59;;;;;;;1.65;0.80;;;;;;;16.31;67.54;99228.09;20339671;28;20055;-87
2023/01/08 19:37:00;;;;;;;2.05;0.70;;;;;;;16.13;68.10;99185.28;20380515;29;20103;-86
2023/01/08 19:47:02;;;;;;;1.20;0.60;;;;;;;16.19;67.93;99179.25;20374082;29;20060;-87
2023/01/08 19:57:03;;;;;;;1.27;0.60;;;;;;;16.36;67.27;99180.94;20377368;29;22200;-88
2023/01/08 20:07:04;;;;;;;1.23;0.60;;;;;;;16.02;66.60;99130.91;20361521;29;20052;-89
2023/01/08 20:17:06;;;;;;;2.08;0.75;;;;;;;15.93;66.54;99105.91;20362776;29;20055;-88
2023/01/08 20:27:08;;;;;;;3.15;0.70;;;;;;;16.33;66.25;99149.03;20389381;29;20039;-88
2023/01/08 20:37:09;;;;;;;1.85;0.80;;;;;;;16.33;65.83;99138.28;20380445;29;20048;-88
2023/01/08 20:47:11;;;;;;;1.33;0.60;;;;;;;16.15;65.63;99105.41;20376450;29;20147;-88
2023/01/08 20:57:12;;;;;;;1.77;0.68;;;;;;;16.30;65.54;99117.13;20387461;29;20052;-89
2023/01/08 21:07:14;;;;;;;0.88;0.60;;;;;;;16.30;65.22;99101.03;20390537;29;20079;-88
2023/01/08 21:17:15;;;;;;;1.33;0.88;;;;;;;16.29;65.13;99099.34;20391004;29;20058;-88
2023/01/08 21:27:17;;;;;;;1.38;0.70;;;;;;;16.28;64.69;99068.13;20385099;29;20394;-86
2023/01/08 21:37:18;;;;;;;2.00;1.13;;;;;;;16.27;64.80;99047.66;20376691;28;20060;-88
2023/01/08 21:47:20;;;;;;;2.05;0.65;;;;;;;16.19;64.22;99031.56;20382787;29;20093;-88
2023/01/08 21:57:21;;;;;;;1.40;0.68;;;;;;;16.27;64.16;99020.81;20385869;29;20048;-88
2023/01/08 22:07:24;;;;;;;1.27;0.90;;;;;;;16.21;64.04;99016.13;20365080;29;20078;-89
2023/01/08 22:17:28;;;;;;;0.70;0.63;;;;;;;16.25;63.76;99006.72;20387705;29;20048;-88
2023/01/08 22:27:30;;;;;;;0.98;0.70;;;;;;;16.27;63.79;98993.13;20361643;29;20451;-88
2023/01/08 22:37:32;;;;;;;2.88;0.90;;;;;;;16.24;63.49;98965.63;20382181;29;20052;-88
2023/01/08 22:47:33;;;;;;;1.05;0.70;;;;;;;16.25;63.34;98979.88;20364613;29;20402;-89
2023/01/08 22:57:35;;;;;;;2.40;0.80;;;;;;;16.24;63.38;98967.47;20365058;29;20632;-89
2023/01/08 23:07:36;;;;;;;1.00;0.63;;;;;;;16.01;63.09;98927.09;20379033;29;20101;-88
2023/01/08 23:17:38;;;;;;;1.50;0.70;;;;;;;16.07;63.35;98927.25;20371093;29;20565;-88
2023/01/08 23:27:52;;;;;;;2.05;0.85;;;;;;;16.23;63.13;98955.03;20385618;29;20087;-89
2023/01/08 23:37:53;;;;;;;0.88;0.55;;;;;;;16.23;62.87;98944.31;20397827;29;20056;-89
2023/01/08 23:47:55;;;;;;;1.02;0.60;;;;;;;16.23;62.83;98933.56;20398785;29;20047;-88
2023/01/08 23:57:57;;;;;;;1.00;0.50;;;;;;;16.09;62.89;98894.84;20370776;29;20055;-89
